sensor_id;sensor_type;location;lat;lon;timestamp;P1;durP1;ratioP1;P2;durP2;ratioP2
16689;SDS011;8458;52.220;9.884;2023-05-20T00:01:26;1.80;;;1.13;;
16689;SDS011;8458;52.220;9.884;2023-05-20T00:03:53;1.67;;;1.30;;
16689;SDS011;8458;52.220;9.884;2023-05-20T00:06:19;2.20;;;1.27;;
16689;SDS011;8458;52.220;9.884;2023-05-20T00:08:46;1.67;;;1.37;;
16689;SDS011;8458;52.220;9.884;2023-05-20T00:11:12;1.80;;;1.10;;
16689;SDS011;8458;52.220;9.884;2023-05-20T00:13:40;3.00;;;1.23;;
16689;SDS011;8458;52.220;9.884;2023-05-20T00:16:07;1.27;;;1.00;;
16689;SDS011;8458;52.220;9.884;2023-05-20T00:18:33;1.10;;;1.00;;
16689;SDS011;8458;52.220;9.884;2023-05-20T00:21:00;1.27;;;1.00;;
16689;SDS011;8458;52.220;9.884;2023-05-20T00:23:26;2.13;;;1.53;;
16689;SDS011;8458;52.220;9.884;2023-05-20T00:25:52;1.30;;;1.20;;
16689;SDS011;8458;52.220;9.884;2023-05-20T00:28:19;2.73;;;1.10;;
16689;SDS011;8458;52.220;9.884;2023-05-20T00:30:49;1.20;;;1.10;;
16689;SDS011;8458;52.220;9.884;2023-05-20T00:33:15;0.90;;;0.90;;
16689;SDS011;8458;52.220;9.884;2023-05-20T00:35:42;1.30;;;1.20;;
16689;SDS011;8458;52.220;9.884;2023-05-20T00:38:08;1.30;;;1.20;;
16689;SDS011;8458;52.220;9.884;2023-05-20T00:40:35;1.33;;;1.20;;
16689;SDS011;8458;52.220;9.884;2023-05-20T00:43:01;1.40;;;1.30;;
16689;SDS011;8458;52.220;9.884;2023-05-20T00:45:27;1.30;;;1.20;;
16689;SDS011;8458;52.220;9.884;2023-05-20T00:47:55;1.37;;;1.13;;
16689;SDS011;8458;52.220;9.884;2023-05-20T00:50:25;1.20;;;1.10;;
16689;SDS011;8458;52.220;9.884;2023-05-20T00:52:52;1.30;;;1.20;;
16689;SDS011;8458;52.220;9.884;2023-05-20T00:55:19;1.03;;;0.97;;
16689;SDS011;8458;52.220;9.884;2023-05-20T00:57:46;1.27;;;1.10;;
16689;SDS011;8458;52.220;9.884;2023-05-20T01:00:13;1.20;;;1.10;;
16689;SDS011;8458;52.220;9.884;2023-05-20T01:02:40;1.97;;;1.27;;
16689;SDS011;8458;52.220;9.884;2023-05-20T01:05:08;1.33;;;1.17;;
16689;SDS011;8458;52.220;9.884;2023-05-20T01:07:34;1.23;;;1.10;;
16689;SDS011;8458;52.220;9.884;2023-05-20T01:10:01;1.97;;;1.20;;
16689;SDS011;8458;52.220;9.884;2023-05-20T01:12:29;1.77;;;1.30;;
16689;SDS011;8458;52.220;9.884;2023-05-20T01:15:02;1.53;;;1.17;;
16689;SDS011;8458;52.220;9.884;2023-05-20T01:17:32;1.93;;;1.30;;
16689;SDS011;8458;52.220;9.884;2023-05-20T01:20:03;1.40;;;1.30;;
16689;SDS011;8458;52.220;9.884;2023-05-20T01:22:36;1.50;;;1.23;;
16689;SDS011;8458;52.220;9.884;2023-05-20T01:25:03;1.90;;;1.30;;
16689;SDS011;8458;52.220;9.884;2023-05-20T01:27:30;1.70;;;1.20;;
16689;SDS011;8458;52.220;9.884;2023-05-20T01:29:56;2.17;;;1.40;;
16689;SDS011;8458;52.220;9.884;2023-05-20T01:32:23;1.10;;;1.10;;
16689;SDS011;8458;52.220;9.884;2023-05-20T01:34:53;1.40;;;1.30;;
16689;SDS011;8458;52.220;9.884;2023-05-20T01:37:21;1.40;;;1.30;;
16689;SDS011;8458;52.220;9.884;2023-05-20T01:39:51;1.77;;;1.20;;
16689;SDS011;8458;52.220;9.884;2023-05-20T01:42:19;1.30;;;1.13;;
16689;SDS011;8458;52.220;9.884;2023-05-20T01:44:46;1.80;;;1.20;;
16689;SDS011;8458;52.220;9.884;2023-05-20T01:47:13;1.40;;;1.30;;
16689;SDS011;8458;52.220;9.884;2023-05-20T01:49:39;1.30;;;1.20;;
16689;SDS011;8458;52.220;9.884;2023-05-20T01:52:06;2.03;;;1.47;;
16689;SDS011;8458;52.220;9.884;2023-05-20T01:54:33;1.30;;;1.20;;
16689;SDS011;8458;52.220;9.884;2023-05-20T01:57:01;1.47;;;1.37;;
16689;SDS011;8458;52.220;9.884;2023-05-20T01:59:27;3.17;;;1.30;;
16689;SDS011;8458;52.220;9.884;2023-05-20T02:01:54;10.40;;;1.40;;
16689;SDS011;8458;52.220;9.884;2023-05-20T02:04:20;1.40;;;1.30;;
16689;SDS011;8458;52.220;9.884;2023-05-20T02:06:47;1.30;;;1.20;;
16689;SDS011;8458;52.220;9.884;2023-05-20T02:09:13;1.30;;;1.20;;
16689;SDS011;8458;52.220;9.884;2023-05-20T02:11:40;1.33;;;1.23;;
16689;SDS011;8458;52.220;9.884;2023-05-20T02:14:08;1.40;;;1.30;;
16689;SDS011;8458;52.220;9.884;2023-05-20T02:16:35;1.27;;;1.17;;
16689;SDS011;8458;52.220;9.884;2023-05-20T02:19:01;1.30;;;1.20;;
16689;SDS011;8458;52.220;9.884;2023-05-20T02:21:28;1.37;;;1.27;;
16689;SDS011;8458;52.220;9.884;2023-05-20T02:23:55;2.10;;;1.37;;
16689;SDS011;8458;52.220;9.884;2023-05-20T02:26:21;1.40;;;1.30;;
16689;SDS011;8458;52.220;9.884;2023-05-20T02:28:49;2.23;;;1.40;;
16689;SDS011;8458;52.220;9.884;2023-05-20T02:31:17;3.77;;;1.20;;
16689;SDS011;8458;52.220;9.884;2023-05-20T02:33:43;1.87;;;1.23;;
16689;SDS011;8458;52.220;9.884;2023-05-20T02:36:10;1.50;;;1.40;;
16689;SDS011;8458;52.220;9.884;2023-05-20T02:38:36;1.50;;;1.40;;
16689;SDS011;8458;52.220;9.884;2023-05-20T02:41:03;1.53;;;1.40;;
16689;SDS011;8458;52.220;9.884;2023-05-20T02:43:29;1.47;;;1.37;;
16689;SDS011;8458;52.220;9.884;2023-05-20T02:45:56;1.90;;;1.33;;
16689;SDS011;8458;52.220;9.884;2023-05-20T02:48:24;1.73;;;1.40;;
16689;SDS011;8458;52.220;9.884;2023-05-20T02:50:51;1.60;;;1.20;;
16689;SDS011;8458;52.220;9.884;2023-05-20T02:53:18;1.50;;;1.00;;
16689;SDS011;8458;52.220;9.884;2023-05-20T02:55:44;1.70;;;1.50;;
16689;SDS011;8458;52.220;9.884;2023-05-20T02:58:12;1.30;;;1.20;;
16689;SDS011;8458;52.220;9.884;2023-05-20T03:00:39;1.70;;;1.23;;
16689;SDS011;8458;52.220;9.884;2023-05-20T03:03:05;1.67;;;1.17;;
16689;SDS011;8458;52.220;9.884;2023-05-20T03:05:33;1.43;;;1.10;;
16689;SDS011;8458;52.220;9.884;2023-05-20T03:08:01;1.73;;;1.30;;
16689;SDS011;8458;52.220;9.884;2023-05-20T03:10:28;1.50;;;1.30;;
16689;SDS011;8458;52.220;9.884;2023-05-20T03:12:55;1.50;;;1.40;;
16689;SDS011;8458;52.220;9.884;2023-05-20T03:15:21;1.13;;;1.13;;
16689;SDS011;8458;52.220;9.884;2023-05-20T03:17:48;1.87;;;1.40;;
16689;SDS011;8458;52.220;9.884;2023-05-20T03:20:14;1.97;;;1.40;;
16689;SDS011;8458;52.220;9.884;2023-05-20T03:22:43;2.00;;;1.63;;
16689;SDS011;8458;52.220;9.884;2023-05-20T03:25:09;1.60;;;1.40;;
16689;SDS011;8458;52.220;9.884;2023-05-20T03:27:36;1.57;;;1.43;;
16689;SDS011;8458;52.220;9.884;2023-05-20T03:30:03;1.60;;;1.50;;
16689;SDS011;8458;52.220;9.884;2023-05-20T03:32:30;1.40;;;1.23;;
16689;SDS011;8458;52.220;9.884;2023-05-20T03:34:57;1.17;;;1.00;;
16689;SDS011;8458;52.220;9.884;2023-05-20T03:37:24;1.17;;;1.13;;
16689;SDS011;8458;52.220;9.884;2023-05-20T03:39:51;1.57;;;1.40;;
16689;SDS011;8458;52.220;9.884;2023-05-20T03:42:18;1.40;;;1.30;;
16689;SDS011;8458;52.220;9.884;2023-05-20T03:44:44;1.60;;;1.40;;
16689;SDS011;8458;52.220;9.884;2023-05-20T03:47:11;2.60;;;1.40;;
16689;SDS011;8458;52.220;9.884;2023-05-20T03:49:37;1.50;;;1.40;;
16689;SDS011;8458;52.220;9.884;2023-05-20T03:52:05;1.57;;;1.40;;
16689;SDS011;8458;52.220;9.884;2023-05-20T03:54:32;1.70;;;1.10;;
16689;SDS011;8458;52.220;9.884;2023-05-20T03:57:01;1.30;;;1.20;;
16689;SDS011;8458;52.220;9.884;2023-05-20T03:59:28;2.37;;;1.27;;
16689;SDS011;8458;52.220;9.884;2023-05-20T04:01:54;2.23;;;1.20;;
16689;SDS011;8458;52.220;9.884;2023-05-20T04:04:21;1.30;;;1.20;;
16689;SDS011;8458;52.220;9.884;2023-05-20T04:06:48;1.30;;;1.20;;
16689;SDS011;8458;52.220;9.884;2023-05-20T04:09:14;1.80;;;1.40;;
16689;SDS011;8458;52.220;9.884;2023-05-20T04:11:41;1.23;;;1.23;;
16689;SDS011;8458;52.220;9.884;2023-05-20T04:14:09;1.60;;;1.50;;
16689;SDS011;8458;52.220;9.884;2023-05-20T04:16:35;1.50;;;1.40;;
16689;SDS011;8458;52.220;9.884;2023-05-20T04:19:02;2.07;;;1.40;;
16689;SDS011;8458;52.220;9.884;2023-05-20T04:21:29;1.70;;;1.20;;
16689;SDS011;8458;52.220;9.884;2023-05-20T04:23:56;1.43;;;1.27;;
16689;SDS011;8458;52.220;9.884;2023-05-20T04:26:22;1.57;;;1.30;;
16689;SDS011;8458;52.220;9.884;2023-05-20T04:28:49;1.30;;;1.20;;
16689;SDS011;8458;52.220;9.884;2023-05-20T04:31:17;1.47;;;1.37;;
16689;SDS011;8458;52.220;9.884;2023-05-20T04:33:44;1.47;;;1.37;;
16689;SDS011;8458;52.220;9.884;2023-05-20T04:36:11;1.40;;;1.30;;
16689;SDS011;8458;52.220;9.884;2023-05-20T04:38:40;1.73;;;1.63;;
16689;SDS011;8458;52.220;9.884;2023-05-20T04:41:08;2.40;;;1.50;;
16689;SDS011;8458;52.220;9.884;2023-05-20T04:43:35;2.03;;;1.50;;
16689;SDS011;8458;52.220;9.884;2023-05-20T04:46:04;1.47;;;1.37;;
16689;SDS011;8458;52.220;9.884;2023-05-20T04:48:32;3.50;;;1.53;;
16689;SDS011;8458;52.220;9.884;2023-05-20T04:50:59;1.80;;;1.50;;
16689;SDS011;8458;52.220;9.884;2023-05-20T04:53:26;1.70;;;1.30;;
16689;SDS011;8458;52.220;9.884;2023-05-20T04:55:54;1.43;;;1.33;;
16689;SDS011;8458;52.220;9.884;2023-05-20T04:58:22;1.73;;;1.30;;
16689;SDS011;8458;52.220;9.884;2023-05-20T05:00:49;1.60;;;1.50;;
16689;SDS011;8458;52.220;9.884;2023-05-20T05:03:16;1.70;;;1.60;;
16689;SDS011;8458;52.220;9.884;2023-05-20T05:05:44;1.77;;;1.40;;
16689;SDS011;8458;52.220;9.884;2023-05-20T05:08:11;1.60;;;1.20;;
16689;SDS011;8458;52.220;9.884;2023-05-20T05:10:37;1.80;;;1.50;;
16689;SDS011;8458;52.220;9.884;2023-05-20T05:13:04;3.13;;;1.30;;
16689;SDS011;8458;52.220;9.884;2023-05-20T05:15:30;1.97;;;1.50;;
16689;SDS011;8458;52.220;9.884;2023-05-20T05:17:57;1.90;;;1.40;;
16689;SDS011;8458;52.220;9.884;2023-05-20T05:20:23;1.73;;;1.53;;
16689;SDS011;8458;52.220;9.884;2023-05-20T05:22:51;2.00;;;1.70;;
16689;SDS011;8458;52.220;9.884;2023-05-20T05:25:17;2.07;;;1.60;;
16689;SDS011;8458;52.220;9.884;2023-05-20T05:27:44;2.40;;;1.80;;
16689;SDS011;8458;52.220;9.884;2023-05-20T05:30:13;1.87;;;1.77;;
16689;SDS011;8458;52.220;9.884;2023-05-20T05:32:39;1.83;;;1.67;;
16689;SDS011;8458;52.220;9.884;2023-05-20T05:35:06;2.07;;;1.87;;
16689;SDS011;8458;52.220;9.884;2023-05-20T05:37:33;2.10;;;1.90;;
16689;SDS011;8458;52.220;9.884;2023-05-20T05:40:01;3.00;;;1.83;;
16689;SDS011;8458;52.220;9.884;2023-05-20T05:42:28;3.57;;;2.10;;
16689;SDS011;8458;52.220;9.884;2023-05-20T05:44:54;2.57;;;1.63;;
16689;SDS011;8458;52.220;9.884;2023-05-20T05:47:21;2.30;;;1.80;;
16689;SDS011;8458;52.220;9.884;2023-05-20T05:49:47;1.70;;;1.60;;
16689;SDS011;8458;52.220;9.884;2023-05-20T05:52:14;2.07;;;1.80;;
16689;SDS011;8458;52.220;9.884;2023-05-20T05:54:40;3.43;;;2.20;;
16689;SDS011;8458;52.220;9.884;2023-05-20T05:57:08;2.37;;;1.77;;
16689;SDS011;8458;52.220;9.884;2023-05-20T05:59:36;5.47;;;2.23;;
16689;SDS011;8458;52.220;9.884;2023-05-20T06:02:02;2.43;;;2.23;;
16689;SDS011;8458;52.220;9.884;2023-05-20T06:04:29;3.03;;;2.20;;
16689;SDS011;8458;52.220;9.884;2023-05-20T06:06:55;2.70;;;2.50;;
16689;SDS011;8458;52.220;9.884;2023-05-20T06:09:21;3.03;;;2.50;;
16689;SDS011;8458;52.220;9.884;2023-05-20T06:11:48;3.00;;;2.80;;
16689;SDS011;8458;52.220;9.884;2023-05-20T06:14:16;3.13;;;2.53;;
16689;SDS011;8458;52.220;9.884;2023-05-20T06:16:42;2.60;;;2.40;;
16689;SDS011;8458;52.220;9.884;2023-05-20T06:19:09;2.67;;;2.47;;
16689;SDS011;8458;52.220;9.884;2023-05-20T06:21:35;3.17;;;2.87;;
16689;SDS011;8458;52.220;9.884;2023-05-20T06:24:02;3.57;;;3.27;;
16689;SDS011;8458;52.220;9.884;2023-05-20T06:26:29;2.67;;;2.47;;
16689;SDS011;8458;52.220;9.884;2023-05-20T06:28:55;3.20;;;2.90;;
16689;SDS011;8458;52.220;9.884;2023-05-20T06:31:23;2.70;;;2.50;;
16689;SDS011;8458;52.220;9.884;2023-05-20T06:33:50;2.77;;;2.57;;
16689;SDS011;8458;52.220;9.884;2023-05-20T06:36:16;3.10;;;2.73;;
16689;SDS011;8458;52.220;9.884;2023-05-20T06:38:43;3.33;;;2.83;;
16689;SDS011;8458;52.220;9.884;2023-05-20T06:41:09;3.13;;;2.53;;
16689;SDS011;8458;52.220;9.884;2023-05-20T06:43:36;2.83;;;2.63;;
16689;SDS011;8458;52.220;9.884;2023-05-20T06:46:04;3.17;;;2.97;;
16689;SDS011;8458;52.220;9.884;2023-05-20T06:48:32;3.77;;;2.70;;
16689;SDS011;8458;52.220;9.884;2023-05-20T06:50:58;3.27;;;3.07;;
16689;SDS011;8458;52.220;9.884;2023-05-20T06:53:25;3.03;;;2.80;;
16689;SDS011;8458;52.220;9.884;2023-05-20T06:55:52;3.30;;;3.00;;
16689;SDS011;8458;52.220;9.884;2023-05-20T06:58:19;2.87;;;2.63;;
16689;SDS011;8458;52.220;9.884;2023-05-20T07:00:46;3.27;;;2.97;;
16689;SDS011;8458;52.220;9.884;2023-05-20T07:03:12;3.20;;;2.90;;
16689;SDS011;8458;52.220;9.884;2023-05-20T07:05:41;2.90;;;2.70;;
16689;SDS011;8458;52.220;9.884;2023-05-20T07:08:07;3.40;;;3.20;;
16689;SDS011;8458;52.220;9.884;2023-05-20T07:10:34;3.20;;;2.90;;
16689;SDS011;8458;52.220;9.884;2023-05-20T07:13:01;3.33;;;3.13;;
16689;SDS011;8458;52.220;9.884;2023-05-20T07:15:27;3.10;;;2.90;;
16689;SDS011;8458;52.220;9.884;2023-05-20T07:17:54;3.37;;;3.07;;
16689;SDS011;8458;52.220;9.884;2023-05-20T07:20:20;3.00;;;2.80;;
16689;SDS011;8458;52.220;9.884;2023-05-20T07:22:48;3.07;;;2.87;;
16689;SDS011;8458;52.220;9.884;2023-05-20T07:25:15;3.13;;;2.93;;
16689;SDS011;8458;52.220;9.884;2023-05-20T07:27:41;3.43;;;3.13;;
16689;SDS011;8458;52.220;9.884;2023-05-20T07:30:08;4.33;;;2.93;;
16689;SDS011;8458;52.220;9.884;2023-05-20T07:32:35;2.97;;;2.77;;
16689;SDS011;8458;52.220;9.884;2023-05-20T07:35:01;3.37;;;3.07;;
16689;SDS011;8458;52.220;9.884;2023-05-20T07:37:28;3.37;;;3.17;;
16689;SDS011;8458;52.220;9.884;2023-05-20T07:39:56;4.80;;;3.47;;
16689;SDS011;8458;52.220;9.884;2023-05-20T07:42:22;3.70;;;3.47;;
16689;SDS011;8458;52.220;9.884;2023-05-20T07:44:49;3.80;;;3.33;;
16689;SDS011;8458;52.220;9.884;2023-05-20T07:47:15;3.70;;;3.50;;
16689;SDS011;8458;52.220;9.884;2023-05-20T07:49:42;4.57;;;3.93;;
16689;SDS011;8458;52.220;9.884;2023-05-20T07:52:10;3.47;;;3.27;;
16689;SDS011;8458;52.220;9.884;2023-05-20T07:54:37;4.27;;;4.07;;
16689;SDS011;8458;52.220;9.884;2023-05-20T07:57:05;3.77;;;3.47;;
16689;SDS011;8458;52.220;9.884;2023-05-20T07:59:31;4.00;;;3.70;;
16689;SDS011;8458;52.220;9.884;2023-05-20T08:01:58;6.43;;;3.70;;
16689;SDS011;8458;52.220;9.884;2023-05-20T08:04:24;4.00;;;3.70;;
16689;SDS011;8458;52.220;9.884;2023-05-20T08:06:51;3.43;;;3.23;;
16689;SDS011;8458;52.220;9.884;2023-05-20T08:09:18;3.93;;;3.63;;
16689;SDS011;8458;52.220;9.884;2023-05-20T08:11:44;4.23;;;3.93;;
16689;SDS011;8458;52.220;9.884;2023-05-20T08:14:12;3.83;;;3.50;;
16689;SDS011;8458;52.220;9.884;2023-05-20T08:16:39;3.63;;;3.43;;
16689;SDS011;8458;52.220;9.884;2023-05-20T08:19:07;3.97;;;3.67;;
16689;SDS011;8458;52.220;9.884;2023-05-20T08:21:34;4.10;;;3.80;;
16689;SDS011;8458;52.220;9.884;2023-05-20T08:24:00;3.93;;;3.73;;
16689;SDS011;8458;52.220;9.884;2023-05-20T08:26:27;4.27;;;3.97;;
16689;SDS011;8458;52.220;9.884;2023-05-20T08:28:53;4.47;;;4.17;;
16689;SDS011;8458;52.220;9.884;2023-05-20T08:31:21;5.17;;;4.83;;
16689;SDS011;8458;52.220;9.884;2023-05-20T08:33:48;4.47;;;4.07;;
16689;SDS011;8458;52.220;9.884;2023-05-20T08:36:14;5.20;;;4.80;;
16689;SDS011;8458;52.220;9.884;2023-05-20T08:38:43;4.50;;;4.20;;
16689;SDS011;8458;52.220;9.884;2023-05-20T08:41:10;5.23;;;4.83;;
16689;SDS011;8458;52.220;9.884;2023-05-20T08:43:36;5.40;;;5.10;;
16689;SDS011;8458;52.220;9.884;2023-05-20T08:46:03;5.70;;;5.30;;
16689;SDS011;8458;52.220;9.884;2023-05-20T08:48:32;6.00;;;5.70;;
16689;SDS011;8458;52.220;9.884;2023-05-20T08:50:58;5.50;;;5.10;;
16689;SDS011;8458;52.220;9.884;2023-05-20T08:53:28;5.80;;;5.40;;
16689;SDS011;8458;52.220;9.884;2023-05-20T08:55:55;5.63;;;5.27;;
16689;SDS011;8458;52.220;9.884;2023-05-20T08:58:26;6.63;;;4.70;;
16689;SDS011;8458;52.220;9.884;2023-05-20T09:00:53;5.50;;;5.10;;
16689;SDS011;8458;52.220;9.884;2023-05-20T09:03:20;4.80;;;4.60;;
16689;SDS011;8458;52.220;9.884;2023-05-20T09:05:49;5.10;;;4.47;;
16689;SDS011;8458;52.220;9.884;2023-05-20T09:08:16;5.07;;;4.67;;
16689;SDS011;8458;52.220;9.884;2023-05-20T09:10:42;4.20;;;3.90;;
16689;SDS011;8458;52.220;9.884;2023-05-20T09:13:09;4.73;;;4.43;;
16689;SDS011;8458;52.220;9.884;2023-05-20T09:15:36;4.93;;;4.63;;
16689;SDS011;8458;52.220;9.884;2023-05-20T09:18:04;4.20;;;3.90;;
16689;SDS011;8458;52.220;9.884;2023-05-20T09:20:32;4.40;;;4.07;;
16689;SDS011;8458;52.220;9.884;2023-05-20T09:23:02;3.67;;;3.43;;
16689;SDS011;8458;52.220;9.884;2023-05-20T09:25:31;3.50;;;3.20;;
16689;SDS011;8458;52.220;9.884;2023-05-20T09:27:58;3.17;;;2.97;;
16689;SDS011;8458;52.220;9.884;2023-05-20T09:30:24;2.83;;;2.63;;
16689;SDS011;8458;52.220;9.884;2023-05-20T09:32:51;3.00;;;2.80;;
16689;SDS011;8458;52.220;9.884;2023-05-20T09:35:18;3.30;;;3.00;;
16689;SDS011;8458;52.220;9.884;2023-05-20T09:37:47;2.97;;;2.77;;
16689;SDS011;8458;52.220;9.884;2023-05-20T09:40:18;3.43;;;2.77;;
16689;SDS011;8458;52.220;9.884;2023-05-20T09:42:49;3.07;;;2.87;;
16689;SDS011;8458;52.220;9.884;2023-05-20T09:45:18;2.83;;;2.63;;
16689;SDS011;8458;52.220;9.884;2023-05-20T09:47:46;2.90;;;2.70;;
16689;SDS011;8458;52.220;9.884;2023-05-20T09:50:13;2.80;;;2.60;;
16689;SDS011;8458;52.220;9.884;2023-05-20T09:52:40;2.80;;;2.60;;
16689;SDS011;8458;52.220;9.884;2023-05-20T09:55:09;3.00;;;2.80;;
16689;SDS011;8458;52.220;9.884;2023-05-20T09:57:37;2.77;;;2.60;;
16689;SDS011;8458;52.220;9.884;2023-05-20T10:00:04;3.00;;;2.77;;
16689;SDS011;8458;52.220;9.884;2023-05-20T10:02:32;2.80;;;2.60;;
16689;SDS011;8458;52.220;9.884;2023-05-20T10:05:00;2.50;;;2.40;;
16689;SDS011;8458;52.220;9.884;2023-05-20T10:07:39;3.00;;;2.80;;
16689;SDS011;8458;52.220;9.884;2023-05-20T10:10:20;2.80;;;2.60;;
16689;SDS011;8458;52.220;9.884;2023-05-20T10:13:00;2.80;;;2.60;;
16689;SDS011;8458;52.220;9.884;2023-05-20T10:15:36;3.03;;;2.83;;
16689;SDS011;8458;52.220;9.884;2023-05-20T10:18:10;2.60;;;2.40;;
16689;SDS011;8458;52.220;9.884;2023-05-20T10:20:50;3.17;;;2.87;;
16689;SDS011;8458;52.220;9.884;2023-05-20T10:23:20;2.60;;;2.40;;
16689;SDS011;8458;52.220;9.884;2023-05-20T10:25:50;2.57;;;2.37;;
16689;SDS011;8458;52.220;9.884;2023-05-20T10:28:26;3.70;;;2.50;;
16689;SDS011;8458;52.220;9.884;2023-05-20T10:30:54;3.10;;;2.90;;
16689;SDS011;8458;52.220;9.884;2023-05-20T10:33:21;2.50;;;2.33;;
16689;SDS011;8458;52.220;9.884;2023-05-20T10:35:49;2.77;;;2.57;;
16689;SDS011;8458;52.220;9.884;2023-05-20T10:38:16;2.50;;;2.30;;
16689;SDS011;8458;52.220;9.884;2023-05-20T10:40:43;2.97;;;2.77;;
16689;SDS011;8458;52.220;9.884;2023-05-20T10:43:09;2.70;;;2.50;;
16689;SDS011;8458;52.220;9.884;2023-05-20T10:45:47;2.87;;;2.67;;
16689;SDS011;8458;52.220;9.884;2023-05-20T10:48:24;3.20;;;3.00;;
16689;SDS011;8458;52.220;9.884;2023-05-20T10:50:55;2.80;;;2.60;;
16689;SDS011;8458;52.220;9.884;2023-05-20T10:53:24;2.87;;;2.67;;
16689;SDS011;8458;52.220;9.884;2023-05-20T10:55:52;3.07;;;2.87;;
16689;SDS011;8458;52.220;9.884;2023-05-20T10:58:20;3.30;;;3.10;;
16689;SDS011;8458;52.220;9.884;2023-05-20T11:00:52;3.00;;;2.90;;
16689;SDS011;8458;52.220;9.884;2023-05-20T11:03:20;3.03;;;2.83;;
16689;SDS011;8458;52.220;9.884;2023-05-20T11:05:47;3.30;;;3.10;;
16689;SDS011;8458;52.220;9.884;2023-05-20T11:08:15;2.93;;;2.73;;
16689;SDS011;8458;52.220;9.884;2023-05-20T11:10:41;2.77;;;2.57;;
16689;SDS011;8458;52.220;9.884;2023-05-20T11:13:10;3.03;;;2.33;;
16689;SDS011;8458;52.220;9.884;2023-05-20T11:15:37;2.80;;;2.60;;
16689;SDS011;8458;52.220;9.884;2023-05-20T11:18:06;2.57;;;2.37;;
16689;SDS011;8458;52.220;9.884;2023-05-20T11:20:33;2.70;;;2.50;;
16689;SDS011;8458;52.220;9.884;2023-05-20T11:23:00;3.23;;;2.67;;
16689;SDS011;8458;52.220;9.884;2023-05-20T11:25:27;3.13;;;2.90;;
16689;SDS011;8458;52.220;9.884;2023-05-20T11:27:54;3.20;;;3.00;;
16689;SDS011;8458;52.220;9.884;2023-05-20T11:30:21;2.80;;;2.60;;
16689;SDS011;8458;52.220;9.884;2023-05-20T11:32:57;3.23;;;3.03;;
16689;SDS011;8458;52.220;9.884;2023-05-20T11:35:26;3.53;;;3.23;;
16689;SDS011;8458;52.220;9.884;2023-05-20T11:37:54;2.60;;;2.37;;
16689;SDS011;8458;52.220;9.884;2023-05-20T11:40:22;3.00;;;2.80;;
16689;SDS011;8458;52.220;9.884;2023-05-20T11:42:52;3.43;;;2.60;;
16689;SDS011;8458;52.220;9.884;2023-05-20T11:45:19;3.00;;;2.80;;
16689;SDS011;8458;52.220;9.884;2023-05-20T11:47:45;3.23;;;2.80;;
16689;SDS011;8458;52.220;9.884;2023-05-20T11:50:15;3.23;;;3.03;;
16689;SDS011;8458;52.220;9.884;2023-05-20T11:52:44;3.13;;;2.93;;
16689;SDS011;8458;52.220;9.884;2023-05-20T11:55:10;3.53;;;2.70;;
16689;SDS011;8458;52.220;9.884;2023-05-20T11:57:37;3.77;;;3.47;;
16689;SDS011;8458;52.220;9.884;2023-05-20T12:00:03;3.07;;;2.87;;
16689;SDS011;8458;52.220;9.884;2023-05-20T12:02:34;3.30;;;3.10;;
16689;SDS011;8458;52.220;9.884;2023-05-20T12:05:01;4.00;;;3.60;;
16689;SDS011;8458;52.220;9.884;2023-05-20T12:07:28;3.10;;;2.90;;
16689;SDS011;8458;52.220;9.884;2023-05-20T12:09:55;3.87;;;3.57;;
16689;SDS011;8458;52.220;9.884;2023-05-20T12:12:22;3.40;;;3.20;;
16689;SDS011;8458;52.220;9.884;2023-05-20T12:14:49;8.67;;;5.20;;
16689;SDS011;8458;52.220;9.884;2023-05-20T12:17:16;4.00;;;3.70;;
16689;SDS011;8458;52.220;9.884;2023-05-20T12:19:42;4.07;;;3.57;;
16689;SDS011;8458;52.220;9.884;2023-05-20T12:22:09;41.47;;;10.07;;
16689;SDS011;8458;52.220;9.884;2023-05-20T12:24:35;20.53;;;7.53;;
16689;SDS011;8458;52.220;9.884;2023-05-20T12:27:03;13.33;;;10.20;;
16689;SDS011;8458;52.220;9.884;2023-05-20T12:29:30;4.70;;;4.00;;
16689;SDS011;8458;52.220;9.884;2023-05-20T12:31:57;3.97;;;3.67;;
16689;SDS011;8458;52.220;9.884;2023-05-20T12:34:23;3.50;;;3.20;;
16689;SDS011;8458;52.220;9.884;2023-05-20T12:36:50;3.43;;;3.13;;
16689;SDS011;8458;52.220;9.884;2023-05-20T12:39:16;3.37;;;3.17;;
16689;SDS011;8458;52.220;9.884;2023-05-20T12:41:43;3.83;;;3.53;;
16689;SDS011;8458;52.220;9.884;2023-05-20T12:44:11;3.77;;;3.57;;
16689;SDS011;8458;52.220;9.884;2023-05-20T12:46:38;3.83;;;3.63;;
16689;SDS011;8458;52.220;9.884;2023-05-20T12:49:04;3.67;;;3.47;;
16689;SDS011;8458;52.220;9.884;2023-05-20T12:51:31;3.37;;;3.17;;
16689;SDS011;8458;52.220;9.884;2023-05-20T12:53:58;3.43;;;3.23;;
16689;SDS011;8458;52.220;9.884;2023-05-20T12:56:24;4.20;;;3.63;;
16689;SDS011;8458;52.220;9.884;2023-05-20T12:58:51;3.93;;;3.73;;
16689;SDS011;8458;52.220;9.884;2023-05-20T13:01:19;4.50;;;4.20;;
16689;SDS011;8458;52.220;9.884;2023-05-20T13:03:45;4.20;;;3.90;;
16689;SDS011;8458;52.220;9.884;2023-05-20T13:06:12;4.87;;;3.97;;
16689;SDS011;8458;52.220;9.884;2023-05-20T13:08:38;4.03;;;3.73;;
16689;SDS011;8458;52.220;9.884;2023-05-20T13:11:05;5.43;;;4.60;;
16689;SDS011;8458;52.220;9.884;2023-05-20T13:13:31;4.90;;;4.43;;
16689;SDS011;8458;52.220;9.884;2023-05-20T13:15:57;20.70;;;6.60;;
16689;SDS011;8458;52.220;9.884;2023-05-20T13:18:26;7.83;;;4.47;;
16689;SDS011;8458;52.220;9.884;2023-05-20T13:20:52;4.10;;;3.80;;
16689;SDS011;8458;52.220;9.884;2023-05-20T13:23:18;4.20;;;3.90;;
16689;SDS011;8458;52.220;9.884;2023-05-20T13:25:45;5.03;;;4.40;;
16689;SDS011;8458;52.220;9.884;2023-05-20T13:28:11;4.07;;;3.77;;
16689;SDS011;8458;52.220;9.884;2023-05-20T13:30:42;4.47;;;4.17;;
16689;SDS011;8458;52.220;9.884;2023-05-20T13:33:08;22.07;;;7.07;;
16689;SDS011;8458;52.220;9.884;2023-05-20T13:35:36;4.20;;;3.80;;
16689;SDS011;8458;52.220;9.884;2023-05-20T13:38:03;4.20;;;3.80;;
16689;SDS011;8458;52.220;9.884;2023-05-20T13:40:29;3.87;;;3.57;;
16689;SDS011;8458;52.220;9.884;2023-05-20T13:42:56;4.20;;;3.80;;
16689;SDS011;8458;52.220;9.884;2023-05-20T13:45:22;5.57;;;4.40;;
16689;SDS011;8458;52.220;9.884;2023-05-20T13:47:49;5.50;;;4.43;;
16689;SDS011;8458;52.220;9.884;2023-05-20T13:50:16;8.43;;;5.37;;
16689;SDS011;8458;52.220;9.884;2023-05-20T13:52:43;3.70;;;3.40;;
16689;SDS011;8458;52.220;9.884;2023-05-20T13:55:10;5.50;;;4.40;;
16689;SDS011;8458;52.220;9.884;2023-05-20T13:57:36;4.73;;;4.30;;
16689;SDS011;8458;52.220;9.884;2023-05-20T14:00:03;4.27;;;3.87;;
16689;SDS011;8458;52.220;9.884;2023-05-20T14:02:31;4.70;;;3.90;;
16689;SDS011;8458;52.220;9.884;2023-05-20T14:04:57;5.40;;;4.10;;
16689;SDS011;8458;52.220;9.884;2023-05-20T14:07:23;7.20;;;4.27;;
16689;SDS011;8458;52.220;9.884;2023-05-20T14:09:51;3.77;;;3.50;;
16689;SDS011;8458;52.220;9.884;2023-05-20T14:12:18;3.63;;;3.43;;
16689;SDS011;8458;52.220;9.884;2023-05-20T14:14:46;48.53;;;11.07;;
16689;SDS011;8458;52.220;9.884;2023-05-20T14:17:13;6.73;;;4.73;;
16689;SDS011;8458;52.220;9.884;2023-05-20T14:19:40;3.63;;;3.33;;
16689;SDS011;8458;52.220;9.884;2023-05-20T14:22:06;4.20;;;4.00;;
16689;SDS011;8458;52.220;9.884;2023-05-20T14:24:32;3.80;;;3.60;;
16689;SDS011;8458;52.220;9.884;2023-05-20T14:27:00;4.60;;;4.30;;
16689;SDS011;8458;52.220;9.884;2023-05-20T14:29:27;4.40;;;4.00;;
16689;SDS011;8458;52.220;9.884;2023-05-20T14:31:53;4.13;;;3.83;;
16689;SDS011;8458;52.220;9.884;2023-05-20T14:34:20;4.30;;;4.00;;
16689;SDS011;8458;52.220;9.884;2023-05-20T14:36:46;3.70;;;3.40;;
16689;SDS011;8458;52.220;9.884;2023-05-20T14:39:13;4.10;;;3.83;;
16689;SDS011;8458;52.220;9.884;2023-05-20T14:41:39;4.17;;;3.87;;
16689;SDS011;8458;52.220;9.884;2023-05-20T14:44:07;4.50;;;4.10;;
16689;SDS011;8458;52.220;9.884;2023-05-20T14:46:33;4.20;;;4.00;;
16689;SDS011;8458;52.220;9.884;2023-05-20T14:49:00;4.10;;;3.80;;
16689;SDS011;8458;52.220;9.884;2023-05-20T14:51:27;5.53;;;3.77;;
16689;SDS011;8458;52.220;9.884;2023-05-20T14:53:53;3.83;;;3.63;;
16689;SDS011;8458;52.220;9.884;2023-05-20T14:56:19;4.07;;;3.77;;
16689;SDS011;8458;52.220;9.884;2023-05-20T14:58:46;3.90;;;3.60;;
16689;SDS011;8458;52.220;9.884;2023-05-20T15:01:14;3.83;;;3.53;;